メインページ
METAR-TAF:

METAR-TAF

空港 :

ウシュアイア, アルゼンチン

ウシュアイア国際空港

緯度: 54-48S, 経度: 068-19W, 海抜: 16m

現時点の気象観測

当レポートは1時間18分前の18:00(UTC)に作成
無風
気温 13°C
湿度 58%
気圧 1003 hPa
視程10km以上
高度4500ftの雲は散在している

METAR: SAWH 251800Z 00000KT 9999 SCT045 13/05 Q1003

時間: 16:18 (19:18 UTC)

予報

当レポートは2時間18分前の17:00(UTC)に作成
予報は25日の 18時(UTC)から 26日の 18時(UTC)まで有効
南西の風 5kt
視程10km以上
高度3500ftの雲は散在している
25日の 21時(UTC)から 25日の 23時(UTC)まで徐々に
北西の風 20kt、最大45ktの突風を伴う
高度3000ftの雲は散在している
高度6000ftの曇り
25日の 06時(UTC)から 25日の 08時(UTC)まで徐々に
西/南西の風 15kt、最大30ktの突風を伴う
視程: 6000m
高度1000ftの雲は散在している
高度2500ftの千切れ雲あり
高度5000ftの曇り
にわか雨

TAF: SAWH 251700Z 2518/2618 23005KT 9999 SCT035 TX15/2519Z TN08/2611Z BECMG 2521/2523 32020G45KT SCT030 OVC060 BECMG 2506/2508 25015G30KT 6000 SHRA SCT010 BKN025 OVC050

4,000以上の空港の気象観測と天気予報(METAR報とTAF報)

利用可能な観測所は地図上に黄色い丸と赤い丸で示す。

丸の上にカーソルを重ねると観測所名を参照できる。

次にクリックすると気象観測と天気予報を参照できる。

マップの切り替え:黒色「×」印の緑ボタンをクリックして拡大、「-」印の緑ボタンをクリックして縮小、緑色の三角印をクリックして隣りの地図に切り替え


METAR-TAF: